sensor_id;sensor_type;location;lat;lon;timestamp;temperature;humidity
23801;DHT22;12081;48.614;10.226;2024-02-21T00:00:15;3.60;99.90
23801;DHT22;12081;48.614;10.226;2024-02-21T00:05:46;3.60;99.90
23801;DHT22;12081;48.614;10.226;2024-02-21T00:08:30;3.60;99.90
23801;DHT22;12081;48.614;10.226;2024-02-21T00:11:15;3.50;99.90
23801;DHT22;12081;48.614;10.226;2024-02-21T00:14:00;3.60;99.90
23801;DHT22;12081;48.614;10.226;2024-02-21T00:16:45;3.60;99.90
23801;DHT22;12081;48.614;10.226;2024-02-21T00:19:29;3.70;99.90
23801;DHT22;12081;48.614;10.226;2024-02-21T00:22:13;3.70;99.90
23801;DHT22;12081;48.614;10.226;2024-02-21T00:24:58;3.40;99.90
23801;DHT22;12081;48.614;10.226;2024-02-21T00:27:43;3.50;99.90
23801;DHT22;12081;48.614;10.226;2024-02-21T00:33:12;3.40;99.90
23801;DHT22;12081;48.614;10.226;2024-02-21T00:35:57;3.40;99.90
23801;DHT22;12081;48.614;10.226;2024-02-21T00:38:42;3.40;99.90
23801;DHT22;12081;48.614;10.226;2024-02-21T00:41:26;3.40;99.90
23801;DHT22;12081;48.614;10.226;2024-02-21T00:44:11;3.10;99.90
23801;DHT22;12081;48.614;10.226;2024-02-21T00:46:55;3.40;99.90
23801;DHT22;12081;48.614;10.226;2024-02-21T00:49:40;3.30;99.90
23801;DHT22;12081;48.614;10.226;2024-02-21T00:52:24;3.20;99.90
23801;DHT22;12081;48.614;10.226;2024-02-21T00:55:09;3.30;99.90
23801;DHT22;12081;48.614;10.226;2024-02-21T00:57:53;3.70;99.90
23801;DHT22;12081;48.614;10.226;2024-02-21T01:03:23;3.30;99.90
23801;DHT22;12081;48.614;10.226;2024-02-21T01:08:52;3.40;99.90
23801;DHT22;12081;48.614;10.226;2024-02-21T01:11:37;3.20;99.90
23801;DHT22;12081;48.614;10.226;2024-02-21T01:14:21;3.20;99.90
23801;DHT22;12081;48.614;10.226;2024-02-21T01:17:06;3.30;99.90
23801;DHT22;12081;48.614;10.226;2024-02-21T01:19:50;3.30;99.90
23801;DHT22;12081;48.614;10.226;2024-02-21T01:22:35;3.20;99.90
23801;DHT22;12081;48.614;10.226;2024-02-21T01:28:04;3.20;99.90
23801;DHT22;12081;48.614;10.226;2024-02-21T01:30:48;3.10;99.90
23801;DHT22;12081;48.614;10.226;2024-02-21T01:33:33;2.80;99.90
23801;DHT22;12081;48.614;10.226;2024-02-21T01:36:19;2.90;99.90
23801;DHT22;12081;48.614;10.226;2024-02-21T01:39:03;3.10;99.90
23801;DHT22;12081;48.614;10.226;2024-02-21T01:41:48;3.20;99.90
23801;DHT22;12081;48.614;10.226;2024-02-21T01:44:32;3.10;99.90
23801;DHT22;12081;48.614;10.226;2024-02-21T01:47:16;3.10;99.90
23801;DHT22;12081;48.614;10.226;2024-02-21T01:50:02;3.10;99.90
23801;DHT22;12081;48.614;10.226;2024-02-21T01:52:48;3.00;99.90
23801;DHT22;12081;48.614;10.226;2024-02-21T01:55:33;2.90;99.90
23801;DHT22;12081;48.614;10.226;2024-02-21T01:58:18;3.10;99.90
23801;DHT22;12081;48.614;10.226;2024-02-21T02:01:03;2.80;99.90
23801;DHT22;12081;48.614;10.226;2024-02-21T02:03:48;2.90;99.90
23801;DHT22;12081;48.614;10.226;2024-02-21T02:06:34;3.00;99.90
23801;DHT22;12081;48.614;10.226;2024-02-21T02:09:18;2.90;99.90
23801;DHT22;12081;48.614;10.226;2024-02-21T02:12:03;3.10;99.90
23801;DHT22;12081;48.614;10.226;2024-02-21T02:18:29;3.00;99.90
23801;DHT22;12081;48.614;10.226;2024-02-21T02:21:26;3.10;99.90
23801;DHT22;12081;48.614;10.226;2024-02-21T02:24:13;3.10;99.90
23801;DHT22;12081;48.614;10.226;2024-02-21T02:26:58;3.00;99.90
23801;DHT22;12081;48.614;10.226;2024-02-21T02:29:42;3.00;99.90
23801;DHT22;12081;48.614;10.226;2024-02-21T02:35:12;3.10;99.90
23801;DHT22;12081;48.614;10.226;2024-02-21T02:37:57;3.30;99.90
23801;DHT22;12081;48.614;10.226;2024-02-21T02:40:42;3.30;99.90
23801;DHT22;12081;48.614;10.226;2024-02-21T02:43:26;3.20;99.90
23801;DHT22;12081;48.614;10.226;2024-02-21T02:46:11;3.30;99.90
23801;DHT22;12081;48.614;10.226;2024-02-21T06:23:15;1.50;99.90
23801;DHT22;12081;48.614;10.226;2024-02-21T06:31:36;1.50;99.90
23801;DHT22;12081;48.614;10.226;2024-02-21T06:42:35;1.50;99.90
23801;DHT22;12081;48.614;10.226;2024-02-21T06:48:05;1.70;99.90
23801;DHT22;12081;48.614;10.226;2024-02-21T07:01:49;3.50;99.90
23801;DHT22;12081;48.614;10.226;2024-02-21T07:10:19;5.60;99.90
23801;DHT22;12081;48.614;10.226;2024-02-21T07:13:03;7.20;99.90
23801;DHT22;12081;48.614;10.226;2024-02-21T07:15:48;8.50;99.90
23801;DHT22;12081;48.614;10.226;2024-02-21T07:18:32;9.60;99.90
23801;DHT22;12081;48.614;10.226;2024-02-21T07:21:16;10.30;99.90
23801;DHT22;12081;48.614;10.226;2024-02-21T07:24:00;11.50;99.90
23801;DHT22;12081;48.614;10.226;2024-02-21T07:26:44;11.30;99.90
23801;DHT22;12081;48.614;10.226;2024-02-21T07:29:28;13.80;99.90
23801;DHT22;12081;48.614;10.226;2024-02-21T07:32:13;13.60;99.90
23801;DHT22;12081;48.614;10.226;2024-02-21T07:34:58;12.50;98.90
23801;DHT22;12081;48.614;10.226;2024-02-21T07:37:42;12.30;98.50
23801;DHT22;12081;48.614;10.226;2024-02-21T07:40:26;13.00;97.30
23801;DHT22;12081;48.614;10.226;2024-02-21T07:43:10;13.70;94.90
23801;DHT22;12081;48.614;10.226;2024-02-21T07:45:54;13.40;94.60
23801;DHT22;12081;48.614;10.226;2024-02-21T07:48:38;13.60;92.90
23801;DHT22;12081;48.614;10.226;2024-02-21T07:51:22;14.90;92.60
23801;DHT22;12081;48.614;10.226;2024-02-21T07:54:06;13.60;91.40
23801;DHT22;12081;48.614;10.226;2024-02-21T07:56:50;14.00;91.80
23801;DHT22;12081;48.614;10.226;2024-02-21T07:59:35;13.00;92.10
23801;DHT22;12081;48.614;10.226;2024-02-21T08:02:18;13.00;92.50
23801;DHT22;12081;48.614;10.226;2024-02-21T08:05:03;13.20;91.00
23801;DHT22;12081;48.614;10.226;2024-02-21T08:07:48;13.20;91.90
23801;DHT22;12081;48.614;10.226;2024-02-21T08:10:32;13.70;90.60
23801;DHT22;12081;48.614;10.226;2024-02-21T08:13:16;14.10;88.90
23801;DHT22;12081;48.614;10.226;2024-02-21T08:16:00;14.60;86.10
23801;DHT22;12081;48.614;10.226;2024-02-21T08:18:44;14.80;82.90
23801;DHT22;12081;48.614;10.226;2024-02-21T08:21:28;18.00;84.40
23801;DHT22;12081;48.614;10.226;2024-02-21T08:24:16;15.20;80.70
23801;DHT22;12081;48.614;10.226;2024-02-21T08:27:00;15.60;78.60
23801;DHT22;12081;48.614;10.226;2024-02-21T08:29:44;18.10;76.60
23801;DHT22;12081;48.614;10.226;2024-02-21T08:32:29;16.70;73.30
23801;DHT22;12081;48.614;10.226;2024-02-21T08:35:13;16.60;72.70
23801;DHT22;12081;48.614;10.226;2024-02-21T08:37:57;16.70;69.50
23801;DHT22;12081;48.614;10.226;2024-02-21T08:40:41;16.80;69.90
23801;DHT22;12081;48.614;10.226;2024-02-21T08:43:25;16.90;69.00
23801;DHT22;12081;48.614;10.226;2024-02-21T08:46:09;17.10;68.60
23801;DHT22;12081;48.614;10.226;2024-02-21T08:48:54;17.30;66.80
23801;DHT22;12081;48.614;10.226;2024-02-21T08:51:38;18.80;67.70
23801;DHT22;12081;48.614;10.226;2024-02-21T08:54:22;19.70;66.80
23801;DHT22;12081;48.614;10.226;2024-02-21T08:57:07;20.00;66.10
23801;DHT22;12081;48.614;10.226;2024-02-21T08:59:51;20.20;66.80
23801;DHT22;12081;48.614;10.226;2024-02-21T09:02:41;19.80;66.90
23801;DHT22;12081;48.614;10.226;2024-02-21T09:05:29;19.10;66.50
23801;DHT22;12081;48.614;10.226;2024-02-21T09:08:13;20.50;67.40
23801;DHT22;12081;48.614;10.226;2024-02-21T09:10:57;19.60;65.60
23801;DHT22;12081;48.614;10.226;2024-02-21T09:13:41;19.40;65.00
23801;DHT22;12081;48.614;10.226;2024-02-21T09:16:25;19.60;65.80
23801;DHT22;12081;48.614;10.226;2024-02-21T09:19:09;17.20;64.80
23801;DHT22;12081;48.614;10.226;2024-02-21T09:21:54;18.40;65.10
23801;DHT22;12081;48.614;10.226;2024-02-21T09:24:38;17.60;64.00
23801;DHT22;12081;48.614;10.226;2024-02-21T09:27:22;17.40;64.30
23801;DHT22;12081;48.614;10.226;2024-02-21T09:30:07;17.40;65.70
23801;DHT22;12081;48.614;10.226;2024-02-21T09:32:51;17.20;64.90
23801;DHT22;12081;48.614;10.226;2024-02-21T09:35:36;17.00;66.10
23801;DHT22;12081;48.614;10.226;2024-02-21T09:38:21;20.00;70.40
23801;DHT22;12081;48.614;10.226;2024-02-21T09:41:18;16.60;69.60
23801;DHT22;12081;48.614;10.226;2024-02-21T09:44:06;16.80;70.70
23801;DHT22;12081;48.614;10.226;2024-02-21T09:47:02;17.00;69.90
23801;DHT22;12081;48.614;10.226;2024-02-21T09:49:49;17.10;69.00
23801;DHT22;12081;48.614;10.226;2024-02-21T09:52:36;17.20;67.00
23801;DHT22;12081;48.614;10.226;2024-02-21T09:55:23;16.70;67.80
23801;DHT22;12081;48.614;10.226;2024-02-21T09:58:09;16.40;67.90
23801;DHT22;12081;48.614;10.226;2024-02-21T10:00:53;18.80;71.90
23801;DHT22;12081;48.614;10.226;2024-02-21T10:03:37;16.00;70.80
23801;DHT22;12081;48.614;10.226;2024-02-21T10:06:22;15.40;72.80
23801;DHT22;12081;48.614;10.226;2024-02-21T10:09:06;14.90;74.00
23801;DHT22;12081;48.614;10.226;2024-02-21T10:11:52;15.20;76.10
23801;DHT22;12081;48.614;10.226;2024-02-21T10:14:37;14.70;76.70
23801;DHT22;12081;48.614;10.226;2024-02-21T10:17:21;14.70;76.70
23801;DHT22;12081;48.614;10.226;2024-02-21T10:20:11;15.00;77.90
23801;DHT22;12081;48.614;10.226;2024-02-21T10:23:06;15.00;77.60
23801;DHT22;12081;48.614;10.226;2024-02-21T10:25:53;15.20;76.30
23801;DHT22;12081;48.614;10.226;2024-02-21T10:28:38;16.90;78.20
23801;DHT22;12081;48.614;10.226;2024-02-21T10:31:41;18.90;77.50
23801;DHT22;12081;48.614;10.226;2024-02-21T10:34:25;15.80;74.30
23801;DHT22;12081;48.614;10.226;2024-02-21T10:37:10;17.70;74.50
23801;DHT22;12081;48.614;10.226;2024-02-21T10:39:54;15.90;72.50
23801;DHT22;12081;48.614;10.226;2024-02-21T10:42:39;15.90;75.00
23801;DHT22;12081;48.614;10.226;2024-02-21T10:45:34;15.80;73.10
23801;DHT22;12081;48.614;10.226;2024-02-21T10:48:25;16.50;74.20
23801;DHT22;12081;48.614;10.226;2024-02-21T10:51:20;16.00;70.30
23801;DHT22;12081;48.614;10.226;2024-02-21T10:57:10;16.30;71.10
23801;DHT22;12081;48.614;10.226;2024-02-21T10:59:56;16.60;70.60
23801;DHT22;12081;48.614;10.226;2024-02-21T11:02:42;16.80;68.90
23801;DHT22;12081;48.614;10.226;2024-02-21T11:05:28;19.60;71.80
23801;DHT22;12081;48.614;10.226;2024-02-21T11:08:13;16.30;69.80
23801;DHT22;12081;48.614;10.226;2024-02-21T11:10:59;20.40;68.00
23801;DHT22;12081;48.614;10.226;2024-02-21T11:13:44;20.10;66.40
23801;DHT22;12081;48.614;10.226;2024-02-21T11:16:35;21.30;65.40
23801;DHT22;12081;48.614;10.226;2024-02-21T11:19:22;18.60;60.80
23801;DHT22;12081;48.614;10.226;2024-02-21T11:22:14;20.50;60.90
23801;DHT22;12081;48.614;10.226;2024-02-21T11:25:07;20.40;60.30
23801;DHT22;12081;48.614;10.226;2024-02-21T11:28:04;20.30;57.40
23801;DHT22;12081;48.614;10.226;2024-02-21T11:30:49;20.90;55.90
23801;DHT22;12081;48.614;10.226;2024-02-21T11:33:35;20.90;54.30
23801;DHT22;12081;48.614;10.226;2024-02-21T11:36:26;21.10;53.80
23801;DHT22;12081;48.614;10.226;2024-02-21T11:39:11;20.80;53.30
23801;DHT22;12081;48.614;10.226;2024-02-21T11:42:06;20.70;52.80
23801;DHT22;12081;48.614;10.226;2024-02-21T11:44:54;20.70;52.30
23801;DHT22;12081;48.614;10.226;2024-02-21T11:47:42;20.50;53.60
23801;DHT22;12081;48.614;10.226;2024-02-21T11:50:27;20.90;53.10
23801;DHT22;12081;48.614;10.226;2024-02-21T11:53:11;19.80;53.70
23801;DHT22;12081;48.614;10.226;2024-02-21T11:55:55;19.70;54.00
23801;DHT22;12081;48.614;10.226;2024-02-21T11:58:40;19.20;54.40
23801;DHT22;12081;48.614;10.226;2024-02-21T12:01:27;20.40;56.80
23801;DHT22;12081;48.614;10.226;2024-02-21T12:04:11;17.50;56.70
23801;DHT22;12081;48.614;10.226;2024-02-21T12:06:56;16.90;58.60
23801;DHT22;12081;48.614;10.226;2024-02-21T12:09:41;16.70;61.50
23801;DHT22;12081;48.614;10.226;2024-02-21T12:12:26;16.40;60.90
23801;DHT22;12081;48.614;10.226;2024-02-21T12:15:12;16.70;59.40
23801;DHT22;12081;48.614;10.226;2024-02-21T12:17:56;16.90;60.00
23801;DHT22;12081;48.614;10.226;2024-02-21T12:20:41;17.20;59.50
23801;DHT22;12081;48.614;10.226;2024-02-21T12:23:29;16.80;58.80
23801;DHT22;12081;48.614;10.226;2024-02-21T12:26:13;17.10;58.40
23801;DHT22;12081;48.614;10.226;2024-02-21T12:28:57;16.70;59.60
23801;DHT22;12081;48.614;10.226;2024-02-21T12:31:41;16.50;60.40
23801;DHT22;12081;48.614;10.226;2024-02-21T12:34:25;16.30;60.60
23801;DHT22;12081;48.614;10.226;2024-02-21T12:37:11;16.50;61.10
23801;DHT22;12081;48.614;10.226;2024-02-21T12:39:57;16.80;61.90
23801;DHT22;12081;48.614;10.226;2024-02-21T12:42:41;15.40;62.90
23801;DHT22;12081;48.614;10.226;2024-02-21T12:45:25;17.80;66.60
23801;DHT22;12081;48.614;10.226;2024-02-21T12:48:09;14.80;65.30
23801;DHT22;12081;48.614;10.226;2024-02-21T12:50:52;16.50;67.10
23801;DHT22;12081;48.614;10.226;2024-02-21T12:53:37;13.90;66.90
23801;DHT22;12081;48.614;10.226;2024-02-21T12:56:21;13.90;69.20
23801;DHT22;12081;48.614;10.226;2024-02-21T12:59:06;14.10;69.20
23801;DHT22;12081;48.614;10.226;2024-02-21T13:01:52;13.70;67.80
23801;DHT22;12081;48.614;10.226;2024-02-21T13:04:37;13.80;69.80
23801;DHT22;12081;48.614;10.226;2024-02-21T13:07:24;15.80;68.50
23801;DHT22;12081;48.614;10.226;2024-02-21T13:10:08;14.00;66.90
23801;DHT22;12081;48.614;10.226;2024-02-21T13:12:52;14.00;68.20
23801;DHT22;12081;48.614;10.226;2024-02-21T13:15:36;14.20;67.10
23801;DHT22;12081;48.614;10.226;2024-02-21T13:18:26;14.70;66.60
23801;DHT22;12081;48.614;10.226;2024-02-21T13:21:10;14.20;67.90
23801;DHT22;12081;48.614;10.226;2024-02-21T13:23:54;14.10;66.10
23801;DHT22;12081;48.614;10.226;2024-02-21T13:26:40;14.10;66.20
23801;DHT22;12081;48.614;10.226;2024-02-21T13:29:24;14.30;66.80
23801;DHT22;12081;48.614;10.226;2024-02-21T13:32:08;14.70;67.30
23801;DHT22;12081;48.614;10.226;2024-02-21T13:34:52;14.90;65.90
23801;DHT22;12081;48.614;10.226;2024-02-21T13:37:36;15.40;66.60
23801;DHT22;12081;48.614;10.226;2024-02-21T13:40:21;15.10;64.70
23801;DHT22;12081;48.614;10.226;2024-02-21T13:43:05;14.90;63.90
23801;DHT22;12081;48.614;10.226;2024-02-21T13:45:57;14.90;64.00
23801;DHT22;12081;48.614;10.226;2024-02-21T13:48:46;14.90;66.20
23801;DHT22;12081;48.614;10.226;2024-02-21T13:51:30;14.90;66.80
23801;DHT22;12081;48.614;10.226;2024-02-21T13:54:14;15.20;65.70
23801;DHT22;12081;48.614;10.226;2024-02-21T13:57:03;15.10;66.20
23801;DHT22;12081;48.614;10.226;2024-02-21T13:59:47;14.70;65.70
23801;DHT22;12081;48.614;10.226;2024-02-21T14:02:31;14.40;64.70
23801;DHT22;12081;48.614;10.226;2024-02-21T14:05:15;14.40;65.90
23801;DHT22;12081;48.614;10.226;2024-02-21T14:07:59;14.60;68.50
23801;DHT22;12081;48.614;10.226;2024-02-21T14:10:43;14.70;68.60
23801;DHT22;12081;48.614;10.226;2024-02-21T14:13:27;13.90;67.70
23801;DHT22;12081;48.614;10.226;2024-02-21T14:16:12;14.30;69.80
23801;DHT22;12081;48.614;10.226;2024-02-21T14:18:59;13.40;70.60
23801;DHT22;12081;48.614;10.226;2024-02-21T14:21:43;13.50;71.50
23801;DHT22;12081;48.614;10.226;2024-02-21T14:24:28;12.90;71.40
23801;DHT22;12081;48.614;10.226;2024-02-21T14:27:12;13.30;71.30
23801;DHT22;12081;48.614;10.226;2024-02-21T14:29:57;13.30;72.60
23801;DHT22;12081;48.614;10.226;2024-02-21T14:32:43;14.40;75.30
23801;DHT22;12081;48.614;10.226;2024-02-21T14:35:27;12.30;73.10
23801;DHT22;12081;48.614;10.226;2024-02-21T14:38:12;12.40;72.90
23801;DHT22;12081;48.614;10.226;2024-02-21T14:40:56;13.60;75.50
23801;DHT22;12081;48.614;10.226;2024-02-21T14:43:40;12.60;75.10
23801;DHT22;12081;48.614;10.226;2024-02-21T14:46:24;13.20;77.00
23801;DHT22;12081;48.614;10.226;2024-02-21T14:49:08;11.70;75.10
23801;DHT22;12081;48.614;10.226;2024-02-21T14:51:52;14.30;79.20
23801;DHT22;12081;48.614;10.226;2024-02-21T14:54:37;11.70;75.70
23801;DHT22;12081;48.614;10.226;2024-02-21T14:57:22;11.60;76.90
23801;DHT22;12081;48.614;10.226;2024-02-21T15:00:08;12.30;77.10
23801;DHT22;12081;48.614;10.226;2024-02-21T15:02:52;11.50;77.50
23801;DHT22;12081;48.614;10.226;2024-02-21T15:05:36;11.30;78.30
23801;DHT22;12081;48.614;10.226;2024-02-21T15:08:20;11.30;80.90
23801;DHT22;12081;48.614;10.226;2024-02-21T15:11:04;11.30;78.80
23801;DHT22;12081;48.614;10.226;2024-02-21T15:13:50;11.20;78.00
23801;DHT22;12081;48.614;10.226;2024-02-21T15:16:34;14.20;82.60
23801;DHT22;12081;48.614;10.226;2024-02-21T15:19:20;13.00;84.20
23801;DHT22;12081;48.614;10.226;2024-02-21T15:22:04;13.60;82.80
23801;DHT22;12081;48.614;10.226;2024-02-21T15:24:48;10.90;80.80
23801;DHT22;12081;48.614;10.226;2024-02-21T15:27:34;10.80;83.70
23801;DHT22;12081;48.614;10.226;2024-02-21T15:30:19;10.70;86.00
23801;DHT22;12081;48.614;10.226;2024-02-21T15:33:04;12.60;89.00
23801;DHT22;12081;48.614;10.226;2024-02-21T15:35:49;11.80;89.40
23801;DHT22;12081;48.614;10.226;2024-02-21T15:38:34;10.60;90.00
23801;DHT22;12081;48.614;10.226;2024-02-21T15:41:18;10.60;90.90
23801;DHT22;12081;48.614;10.226;2024-02-21T15:44:05;12.00;90.30
23801;DHT22;12081;48.614;10.226;2024-02-21T15:46:49;10.50;87.50
23801;DHT22;12081;48.614;10.226;2024-02-21T15:49:35;11.00;90.60
23801;DHT22;12081;48.614;10.226;2024-02-21T15:52:20;11.70;91.80
23801;DHT22;12081;48.614;10.226;2024-02-21T15:55:05;11.50;91.10
23801;DHT22;12081;48.614;10.226;2024-02-21T15:57:55;10.40;91.40
23801;DHT22;12081;48.614;10.226;2024-02-21T16:00:39;11.00;90.40
23801;DHT22;12081;48.614;10.226;2024-02-21T16:03:22;10.30;91.20
23801;DHT22;12081;48.614;10.226;2024-02-21T16:06:07;11.20;90.80
23801;DHT22;12081;48.614;10.226;2024-02-21T16:08:51;11.40;92.30
23801;DHT22;12081;48.614;10.226;2024-02-21T16:11:36;10.20;92.70
23801;DHT22;12081;48.614;10.226;2024-02-21T16:14:21;10.20;92.50
23801;DHT22;12081;48.614;10.226;2024-02-21T16:17:05;10.60;93.10
23801;DHT22;12081;48.614;10.226;2024-02-21T16:19:49;10.70;93.90
23801;DHT22;12081;48.614;10.226;2024-02-21T16:22:33;11.30;94.90
23801;DHT22;12081;48.614;10.226;2024-02-21T16:25:17;9.90;95.30
23801;DHT22;12081;48.614;10.226;2024-02-21T16:28:02;9.70;95.70
23801;DHT22;12081;48.614;10.226;2024-02-21T16:30:48;9.70;98.10
23801;DHT22;12081;48.614;10.226;2024-02-21T16:33:32;9.50;99.90
23801;DHT22;12081;48.614;10.226;2024-02-21T16:36:24;10.10;99.90
23801;DHT22;12081;48.614;10.226;2024-02-21T16:39:08;9.10;99.90
23801;DHT22;12081;48.614;10.226;2024-02-21T16:41:55;9.10;99.90
23801;DHT22;12081;48.614;10.226;2024-02-21T16:44:44;9.00;99.90
23801;DHT22;12081;48.614;10.226;2024-02-21T16:47:28;8.70;99.90
23801;DHT22;12081;48.614;10.226;2024-02-21T16:50:12;10.20;99.90
23801;DHT22;12081;48.614;10.226;2024-02-21T16:52:56;8.50;99.90
23801;DHT22;12081;48.614;10.226;2024-02-21T16:55:41;8.40;99.90
23801;DHT22;12081;48.614;10.226;2024-02-21T16:58:25;8.30;99.90
23801;DHT22;12081;48.614;10.226;2024-02-21T17:01:09;8.20;99.90
23801;DHT22;12081;48.614;10.226;2024-02-21T17:03:55;8.00;99.90
23801;DHT22;12081;48.614;10.226;2024-02-21T17:06:39;8.20;99.90
23801;DHT22;12081;48.614;10.226;2024-02-21T17:09:23;8.10;99.90
23801;DHT22;12081;48.614;10.226;2024-02-21T17:12:08;8.10;99.90
23801;DHT22;12081;48.614;10.226;2024-02-21T17:14:52;8.00;99.90
23801;DHT22;12081;48.614;10.226;2024-02-21T17:17:36;8.00;99.90
23801;DHT22;12081;48.614;10.226;2024-02-21T17:20:20;8.00;99.90
23801;DHT22;12081;48.614;10.226;2024-02-21T17:23:04;8.00;99.90
23801;DHT22;12081;48.614;10.226;2024-02-21T17:25:49;8.00;99.90
23801;DHT22;12081;48.614;10.226;2024-02-21T17:28:33;7.90;99.90
23801;DHT22;12081;48.614;10.226;2024-02-21T17:31:17;7.90;99.90
23801;DHT22;12081;48.614;10.226;2024-02-21T17:34:02;7.80;99.90
23801;DHT22;12081;48.614;10.226;2024-02-21T17:36:47;7.70;99.90
23801;DHT22;12081;48.614;10.226;2024-02-21T17:39:32;7.60;99.90
23801;DHT22;12081;48.614;10.226;2024-02-21T17:42:16;7.70;99.90
23801;DHT22;12081;48.614;10.226;2024-02-21T17:45:00;7.60;99.90
23801;DHT22;12081;48.614;10.226;2024-02-21T17:47:45;7.70;99.90
23801;DHT22;12081;48.614;10.226;2024-02-21T17:50:30;7.70;99.90
23801;DHT22;12081;48.614;10.226;2024-02-21T17:53:15;7.80;99.90
23801;DHT22;12081;48.614;10.226;2024-02-21T17:56:00;7.90;99.90
23801;DHT22;12081;48.614;10.226;2024-02-21T17:58:44;7.90;99.90
23801;DHT22;12081;48.614;10.226;2024-02-21T18:01:28;7.90;99.90
23801;DHT22;12081;48.614;10.226;2024-02-21T18:04:13;7.90;99.90
23801;DHT22;12081;48.614;10.226;2024-02-21T18:06:57;7.90;99.90
23801;DHT22;12081;48.614;10.226;2024-02-21T18:09:41;7.90;99.90
23801;DHT22;12081;48.614;10.226;2024-02-21T18:12:25;7.80;99.90
23801;DHT22;12081;48.614;10.226;2024-02-21T18:15:09;7.80;99.90
23801;DHT22;12081;48.614;10.226;2024-02-21T18:17:57;7.90;99.90
23801;DHT22;12081;48.614;10.226;2024-02-21T18:20:41;7.80;99.90
23801;DHT22;12081;48.614;10.226;2024-02-21T18:23:25;7.80;99.90
23801;DHT22;12081;48.614;10.226;2024-02-21T18:26:12;7.70;99.90
23801;DHT22;12081;48.614;10.226;2024-02-21T18:28:56;7.70;99.90
23801;DHT22;12081;48.614;10.226;2024-02-21T18:31:40;7.50;99.90
23801;DHT22;12081;48.614;10.226;2024-02-21T18:34:24;7.50;99.90
23801;DHT22;12081;48.614;10.226;2024-02-21T18:37:09;7.40;99.90
23801;DHT22;12081;48.614;10.226;2024-02-21T18:39:53;7.40;99.90
23801;DHT22;12081;48.614;10.226;2024-02-21T18:42:39;9.50;99.90
23801;DHT22;12081;48.614;10.226;2024-02-21T18:45:25;7.40;99.90
23801;DHT22;12081;48.614;10.226;2024-02-21T18:48:09;7.30;99.90
23801;DHT22;12081;48.614;10.226;2024-02-21T18:50:53;7.40;99.90
23801;DHT22;12081;48.614;10.226;2024-02-21T18:53:37;7.40;99.90
23801;DHT22;12081;48.614;10.226;2024-02-21T18:56:21;7.90;99.90
23801;DHT22;12081;48.614;10.226;2024-02-21T18:59:10;7.40;99.90
23801;DHT22;12081;48.614;10.226;2024-02-21T19:01:55;7.40;99.90
23801;DHT22;12081;48.614;10.226;2024-02-21T19:04:39;8.70;99.90
23801;DHT22;12081;48.614;10.226;2024-02-21T19:07:23;7.30;99.90
23801;DHT22;12081;48.614;10.226;2024-02-21T19:10:08;7.20;99.90
23801;DHT22;12081;48.614;10.226;2024-02-21T19:12:53;7.10;99.90
23801;DHT22;12081;48.614;10.226;2024-02-21T19:15:37;7.10;99.90
23801;DHT22;12081;48.614;10.226;2024-02-21T19:18:25;7.00;99.90
23801;DHT22;12081;48.614;10.226;2024-02-21T19:21:09;6.90;99.90
23801;DHT22;12081;48.614;10.226;2024-02-21T19:23:53;6.90;99.90
23801;DHT22;12081;48.614;10.226;2024-02-21T19:26:37;6.80;99.90
23801;DHT22;12081;48.614;10.226;2024-02-21T19:29:21;6.80;99.90
23801;DHT22;12081;48.614;10.226;2024-02-21T19:32:06;6.80;99.90
23801;DHT22;12081;48.614;10.226;2024-02-21T19:34:50;6.90;99.90
23801;DHT22;12081;48.614;10.226;2024-02-21T19:37:40;6.90;99.90
23801;DHT22;12081;48.614;10.226;2024-02-21T19:40:24;7.00;99.90
23801;DHT22;12081;48.614;10.226;2024-02-21T19:43:09;7.00;99.90
23801;DHT22;12081;48.614;10.226;2024-02-21T19:45:53;7.00;99.90
23801;DHT22;12081;48.614;10.226;2024-02-21T19:48:37;7.10;99.90
23801;DHT22;12081;48.614;10.226;2024-02-21T19:51:21;7.10;99.90
23801;DHT22;12081;48.614;10.226;2024-02-21T19:54:08;7.10;99.90
23801;DHT22;12081;48.614;10.226;2024-02-21T19:56:52;7.10;99.90
23801;DHT22;12081;48.614;10.226;2024-02-21T19:59:38;7.10;99.90
23801;DHT22;12081;48.614;10.226;2024-02-21T20:02:22;7.10;99.90
23801;DHT22;12081;48.614;10.226;2024-02-21T20:05:08;7.20;99.90
23801;DHT22;12081;48.614;10.226;2024-02-21T20:07:53;7.10;99.90
23801;DHT22;12081;48.614;10.226;2024-02-21T20:10:36;7.60;99.90
23801;DHT22;12081;48.614;10.226;2024-02-21T20:13:21;7.20;99.90
23801;DHT22;12081;48.614;10.226;2024-02-21T20:16:05;7.20;99.90
23801;DHT22;12081;48.614;10.226;2024-02-21T20:18:49;7.20;99.90
23801;DHT22;12081;48.614;10.226;2024-02-21T20:21:33;7.20;99.90
23801;DHT22;12081;48.614;10.226;2024-02-21T20:24:20;7.30;99.90
23801;DHT22;12081;48.614;10.226;2024-02-21T20:27:05;7.30;99.90
23801;DHT22;12081;48.614;10.226;2024-02-21T20:29:49;7.30;99.90
23801;DHT22;12081;48.614;10.226;2024-02-21T20:32:34;7.30;99.90
23801;DHT22;12081;48.614;10.226;2024-02-21T20:35:18;7.30;99.90
23801;DHT22;12081;48.614;10.226;2024-02-21T20:38:04;8.10;99.90
23801;DHT22;12081;48.614;10.226;2024-02-21T20:40:49;7.20;99.90
23801;DHT22;12081;48.614;10.226;2024-02-21T20:43:33;7.90;99.90
23801;DHT22;12081;48.614;10.226;2024-02-21T20:46:17;7.20;99.90
23801;DHT22;12081;48.614;10.226;2024-02-21T20:49:01;7.20;99.90
23801;DHT22;12081;48.614;10.226;2024-02-21T20:51:45;7.20;99.90
23801;DHT22;12081;48.614;10.226;2024-02-21T20:54:29;7.20;99.90
23801;DHT22;12081;48.614;10.226;2024-02-21T20:57:13;7.10;99.90
23801;DHT22;12081;48.614;10.226;2024-02-21T20:59:57;7.20;99.90
23801;DHT22;12081;48.614;10.226;2024-02-21T21:02:41;7.20;99.90
23801;DHT22;12081;48.614;10.226;2024-02-21T21:05:25;7.30;99.90
23801;DHT22;12081;48.614;10.226;2024-02-21T21:08:10;7.20;99.90
23801;DHT22;12081;48.614;10.226;2024-02-21T21:10:54;7.10;99.90
23801;DHT22;12081;48.614;10.226;2024-02-21T21:13:38;7.10;99.90
23801;DHT22;12081;48.614;10.226;2024-02-21T21:16:22;7.20;99.90
23801;DHT22;12081;48.614;10.226;2024-02-21T21:19:06;7.20;99.90
23801;DHT22;12081;48.614;10.226;2024-02-21T21:21:50;7.30;99.90
23801;DHT22;12081;48.614;10.226;2024-02-21T21:24:35;7.40;99.90
23801;DHT22;12081;48.614;10.226;2024-02-21T21:27:19;7.40;99.90
23801;DHT22;12081;48.614;10.226;2024-02-21T21:30:04;7.50;99.90
23801;DHT22;12081;48.614;10.226;2024-02-21T21:32:48;7.50;99.90
23801;DHT22;12081;48.614;10.226;2024-02-21T21:35:32;7.50;99.90
23801;DHT22;12081;48.614;10.226;2024-02-21T21:38:16;7.40;99.90
23801;DHT22;12081;48.614;10.226;2024-02-21T21:41:00;10.10;99.90
23801;DHT22;12081;48.614;10.226;2024-02-21T21:43:44;7.40;99.90